createdAt,value
2022-07-27T00:01:15.641Z,17.60
2022-07-27T00:03:43.821Z,17.60
2022-07-27T00:06:10.842Z,17.50
2022-07-27T00:08:37.674Z,17.50
2022-07-27T00:11:04.810Z,17.50
2022-07-27T00:13:31.880Z,17.40
2022-07-27T00:15:58.721Z,17.30
2022-07-27T00:18:25.579Z,17.20
2022-07-27T00:20:52.341Z,17.20
2022-07-27T00:23:19.269Z,17.30
2022-07-27T00:25:46.006Z,17.20
2022-07-27T00:28:12.863Z,17.10
2022-07-27T00:30:39.633Z,17.10
2022-07-27T00:33:06.563Z,17.00
2022-07-27T00:35:33.309Z,17.00
2022-07-27T00:38:02.775Z,17.10
2022-07-27T00:40:29.593Z,17.20
2022-07-27T00:42:56.513Z,17.30
2022-07-27T00:45:23.613Z,17.40
2022-07-27T00:47:54.783Z,17.50
2022-07-27T00:50:21.955Z,17.60
2022-07-27T00:52:48.807Z,17.60
2022-07-27T00:55:16.095Z,17.60
2022-07-27T00:57:58.627Z,17.60
2022-07-27T01:00:27.281Z,17.60
2022-07-27T01:02:54.726Z,17.60
2022-07-27T01:05:24.488Z,17.60
2022-07-27T01:08:03.552Z,17.70
2022-07-27T01:10:30.369Z,17.70
2022-07-27T01:12:57.259Z,17.60
2022-07-27T01:15:24.134Z,17.60
2022-07-27T01:17:50.922Z,17.60
2022-07-27T01:20:17.743Z,17.60
2022-07-27T01:22:44.471Z,17.60
2022-07-27T01:25:11.631Z,17.70
2022-07-27T01:27:38.452Z,17.60
2022-07-27T01:30:25.624Z,17.70
2022-07-27T01:32:59.105Z,17.80
2022-07-27T01:35:25.983Z,17.80
2022-07-27T01:37:52.755Z,17.90
2022-07-27T01:40:19.493Z,17.90
2022-07-27T01:42:46.302Z,17.90
2022-07-27T01:45:13.157Z,17.70
2022-07-27T01:47:39.914Z,17.70
2022-07-27T01:50:06.986Z,17.60
2022-07-27T01:52:33.962Z,17.60
2022-07-27T01:55:00.800Z,17.60
2022-07-27T01:57:27.644Z,17.50
2022-07-27T01:59:54.449Z,17.60
2022-07-27T02:02:21.355Z,17.60
2022-07-27T02:04:48.133Z,17.50
2022-07-27T02:07:15.000Z,17.50
2022-07-27T02:09:41.790Z,17.50
2022-07-27T02:12:27.410Z,17.40
2022-07-27T02:14:54.748Z,17.40
2022-07-27T02:17:22.726Z,17.40
2022-07-27T02:19:49.477Z,17.30
2022-07-27T02:22:17.145Z,17.20
2022-07-27T02:24:44.142Z,17.10
2022-07-27T02:27:11.000Z,17.10
2022-07-27T02:29:37.773Z,17.00
2022-07-27T02:32:04.760Z,17.00
2022-07-27T02:34:31.705Z,17.00
2022-07-27T02:36:58.503Z,17.00
2022-07-27T02:39:25.250Z,17.00
2022-07-27T02:41:52.109Z,16.90
2022-07-27T02:44:20.261Z,16.90
2022-07-27T02:46:47.104Z,16.90
2022-07-27T02:49:14.436Z,16.70
2022-07-27T02:51:41.688Z,16.50
2022-07-27T02:54:10.063Z,16.40
2022-07-27T02:56:36.797Z,16.30
2022-07-27T02:59:03.588Z,16.30
2022-07-27T03:01:30.680Z,16.10
2022-07-27T03:03:57.491Z,16.10
2022-07-27T03:06:24.552Z,16.20
2022-07-27T03:08:51.368Z,16.20
2022-07-27T03:11:18.303Z,16.30
2022-07-27T03:13:45.253Z,16.30
2022-07-27T03:16:12.282Z,16.20
2022-07-27T03:18:39.148Z,16.30
2022-07-27T03:21:06.791Z,16.20
2022-07-27T03:23:35.172Z,16.20
2022-07-27T03:26:01.949Z,16.10
2022-07-27T03:28:28.814Z,16.00
2022-07-27T03:30:55.627Z,16.00
2022-07-27T03:33:22.445Z,15.90
2022-07-27T03:35:49.336Z,15.90
2022-07-27T03:38:16.102Z,15.90
2022-07-27T03:40:45.300Z,15.90
2022-07-27T03:43:12.081Z,15.90
2022-07-27T03:45:38.953Z,15.90
2022-07-27T03:48:05.920Z,16.00
2022-07-27T03:50:32.709Z,16.00
2022-07-27T03:52:59.531Z,16.00
2022-07-27T03:55:26.326Z,15.90
2022-07-27T03:57:53.345Z,15.90
2022-07-27T04:00:20.388Z,15.80
2022-07-27T04:02:47.295Z,15.70
2022-07-27T04:05:14.221Z,15.70
2022-07-27T04:07:41.007Z,15.70
2022-07-27T04:10:08.467Z,15.70
2022-07-27T04:12:38.864Z,15.70
2022-07-27T04:15:06.662Z,15.70
2022-07-27T04:17:56.297Z,15.60
2022-07-27T04:20:20.462Z,15.60
2022-07-27T04:22:48.371Z,15.60
2022-07-27T04:25:15.234Z,15.30
2022-07-27T04:27:42.068Z,15.30
2022-07-27T04:30:09.795Z,15.30
2022-07-27T04:32:36.847Z,15.30
2022-07-27T04:35:03.709Z,15.40
2022-07-27T04:37:32.025Z,15.40
2022-07-27T04:39:59.076Z,15.40
2022-07-27T04:42:25.989Z,15.30
2022-07-27T04:44:52.778Z,15.10
2022-07-27T04:47:19.785Z,15.10
2022-07-27T04:49:46.598Z,15.10
2022-07-27T04:52:16.940Z,15.10
2022-07-27T04:54:50.984Z,15.30
2022-07-27T04:57:17.764Z,15.40
2022-07-27T04:59:44.542Z,15.30
2022-07-27T05:02:11.399Z,15.40
2022-07-27T05:04:38.216Z,15.40
2022-07-27T05:07:05.330Z,15.60
2022-07-27T05:09:32.194Z,15.80
2022-07-27T05:11:59.036Z,16.00
2022-07-27T05:14:26.137Z,16.20
2022-07-27T05:16:53.009Z,16.20
2022-07-27T05:19:20.317Z,16.20
2022-07-27T05:21:47.238Z,16.20
2022-07-27T05:24:14.001Z,16.40
2022-07-27T05:26:40.849Z,16.40
2022-07-27T05:29:07.579Z,16.40
2022-07-27T05:31:34.572Z,16.40
2022-07-27T05:34:01.613Z,16.50
2022-07-27T05:36:28.734Z,16.50
2022-07-27T05:38:55.471Z,16.50
2022-07-27T05:41:26.293Z,16.50
2022-07-27T05:43:54.464Z,16.70
2022-07-27T05:46:21.728Z,16.90
2022-07-27T05:48:48.773Z,17.10
2022-07-27T05:51:15.659Z,17.20
2022-07-27T05:53:42.449Z,17.30
2022-07-27T05:56:09.232Z,17.30
2022-07-27T05:58:36.141Z,17.30
2022-07-27T06:01:02.990Z,17.20
2022-07-27T06:03:29.942Z,17.30
2022-07-27T06:06:16.814Z,17.50
2022-07-27T06:08:44.728Z,17.70
2022-07-27T06:11:11.586Z,18.00
2022-07-27T06:13:41.945Z,18.10
2022-07-27T06:16:09.785Z,18.10
2022-07-27T06:18:38.686Z,18.10
2022-07-27T06:21:05.535Z,18.10
2022-07-27T06:23:32.346Z,18.30
2022-07-27T06:26:00.245Z,18.30
2022-07-27T06:28:27.049Z,18.30
2022-07-27T06:30:53.976Z,18.30
2022-07-27T06:33:31.704Z,18.30
2022-07-27T06:35:59.288Z,18.40
2022-07-27T06:38:26.813Z,18.50
2022-07-27T06:40:53.894Z,18.70
2022-07-27T06:43:21.501Z,18.90
2022-07-27T06:45:48.503Z,19.00
2022-07-27T06:48:15.529Z,19.10
2022-07-27T06:50:42.703Z,19.20
2022-07-27T06:53:09.492Z,19.40
2022-07-27T06:55:36.236Z,19.60
2022-07-27T06:58:03.519Z,19.70
2022-07-27T07:00:30.343Z,19.60
2022-07-27T07:03:02.976Z,19.50
2022-07-27T07:05:30.347Z,19.70
2022-07-27T07:07:57.600Z,19.90
2022-07-27T07:10:26.825Z,20.00
2022-07-27T07:12:56.085Z,20.20
2022-07-27T07:15:24.226Z,20.00
2022-07-27T07:17:51.024Z,19.70
2022-07-27T07:20:17.882Z,19.80
2022-07-27T07:22:44.756Z,19.90
2022-07-27T07:25:11.875Z,20.10
2022-07-27T07:27:38.704Z,20.20
2022-07-27T07:30:05.696Z,20.50
2022-07-27T07:32:33.719Z,20.70
2022-07-27T07:35:01.467Z,20.80
2022-07-27T07:37:31.753Z,20.50
2022-07-27T07:40:13.088Z,20.60
2022-07-27T07:42:54.828Z,20.60
2022-07-27T07:45:22.073Z,20.50
2022-07-27T07:47:49.566Z,20.80
2022-07-27T07:50:16.856Z,20.80
2022-07-27T07:52:43.973Z,20.80
2022-07-27T07:55:11.173Z,20.90
2022-07-27T07:57:38.667Z,21.20
2022-07-27T08:00:06.606Z,21.50
2022-07-27T08:02:48.654Z,21.30
2022-07-27T08:05:16.412Z,20.90
2022-07-27T08:07:43.749Z,20.90
2022-07-27T08:10:11.605Z,20.90
2022-07-27T08:12:39.722Z,21.00
2022-07-27T08:15:07.040Z,21.20
2022-07-27T08:17:33.723Z,21.20
2022-07-27T08:20:00.580Z,21.10
2022-07-27T08:22:27.781Z,21.00
2022-07-27T08:24:54.543Z,21.10
2022-07-27T08:27:21.330Z,21.30
2022-07-27T08:29:48.159Z,21.20
2022-07-27T08:32:18.954Z,21.30
2022-07-27T08:34:45.824Z,21.30
2022-07-27T08:37:15.540Z,21.40
2022-07-27T08:40:37.279Z,21.70
2022-07-27T08:42:30.070Z,21.90
2022-07-27T08:44:57.474Z,22.20
2022-07-27T08:47:24.463Z,22.50
2022-07-27T08:49:52.056Z,22.60
2022-07-27T08:52:20.125Z,22.50
2022-07-27T08:54:47.224Z,22.40
2022-07-27T08:57:14.223Z,22.20
2022-07-27T08:59:41.123Z,22.20
2022-07-27T09:02:10.937Z,22.30
2022-07-27T09:04:39.901Z,22.60
2022-07-27T09:07:06.911Z,23.00
2022-07-27T09:09:47.018Z,23.20
2022-07-27T09:12:14.043Z,23.00
2022-07-27T09:14:41.612Z,22.80
2022-07-27T09:20:19.267Z,22.60
2022-07-27T09:22:54.438Z,22.70
2022-07-27T09:25:44.829Z,22.70
2022-07-27T09:28:09.546Z,23.00
2022-07-27T09:30:41.213Z,23.50
2022-07-27T09:33:08.021Z,23.50
2022-07-27T09:35:35.624Z,23.20
2022-07-27T09:38:18.623Z,22.90
2022-07-27T09:40:46.662Z,22.70
2022-07-27T09:46:08.062Z,22.70
2022-07-27T09:48:35.984Z,23.00
2022-07-27T09:51:43.407Z,23.30
2022-07-27T09:53:54.423Z,23.40
2022-07-27T09:56:28.813Z,23.20
2022-07-27T09:59:02.689Z,23.10
2022-07-27T10:01:35.065Z,23.00
2022-07-27T10:04:05.953Z,23.10
2022-07-27T10:06:53.561Z,23.40
2022-07-27T10:09:21.030Z,23.70
2022-07-27T10:11:48.442Z,24.10
2022-07-27T10:14:15.829Z,24.50
2022-07-27T10:16:43.861Z,24.80
2022-07-27T10:19:34.294Z,24.70
2022-07-27T10:22:01.269Z,25.00
2022-07-27T10:24:31.608Z,25.10
2022-07-27T10:26:58.930Z,25.00
2022-07-27T10:29:25.716Z,24.20
2022-07-27T10:31:52.564Z,23.90
2022-07-27T10:34:38.302Z,24.20
2022-07-27T10:37:09.315Z,24.70
2022-07-27T10:39:43.200Z,25.40
2022-07-27T10:42:29.655Z,25.60
2022-07-27T10:45:04.920Z,25.80
2022-07-27T10:47:52.417Z,26.30
2022-07-27T10:50:24.023Z,26.70
2022-07-27T10:53:01.032Z,27.00
2022-07-27T10:55:37.017Z,27.30
2022-07-27T10:58:10.120Z,26.90
2022-07-27T11:00:54.661Z,26.60
2022-07-27T11:03:22.385Z,26.20
2022-07-27T11:06:01.286Z,25.90
2022-07-27T11:08:38.163Z,25.60
2022-07-27T11:11:09.096Z,25.30
2022-07-27T11:13:39.003Z,24.90
2022-07-27T11:19:04.975Z,24.80
2022-07-27T11:21:39.070Z,25.00
2022-07-27T11:24:13.829Z,25.50
2022-07-27T11:26:42.601Z,25.60
2022-07-27T11:29:11.685Z,25.70
2022-07-27T11:31:54.930Z,25.80
2022-07-27T11:34:30.392Z,26.00
2022-07-27T11:37:01.844Z,26.40
2022-07-27T11:42:18.790Z,26.40
2022-07-27T11:44:49.100Z,26.70
2022-07-27T11:47:17.255Z,26.90
2022-07-27T11:49:44.340Z,26.90
2022-07-27T11:52:11.344Z,26.50
2022-07-27T11:54:39.390Z,26.10
2022-07-27T11:57:08.233Z,25.70
2022-07-27T11:59:36.270Z,25.50
2022-07-27T12:02:06.440Z,25.20
2022-07-27T12:04:34.276Z,24.90
2022-07-27T12:07:10.770Z,24.80
2022-07-27T12:09:48.760Z,24.70
2022-07-27T12:12:19.835Z,24.80
2022-07-27T12:14:51.210Z,24.70
2022-07-27T12:17:27.770Z,24.40
2022-07-27T12:19:57.888Z,24.80
2022-07-27T12:22:35.688Z,24.90
2022-07-27T12:25:12.675Z,25.10
2022-07-27T12:27:53.705Z,25.10
2022-07-27T12:30:27.954Z,24.70
2022-07-27T12:32:55.720Z,24.40
2022-07-27T12:35:31.558Z,24.30
2022-07-27T12:38:05.846Z,24.40
2022-07-27T12:40:33.848Z,24.60
2022-07-27T12:43:05.754Z,24.50
2022-07-27T12:45:34.962Z,24.50
2022-07-27T12:48:09.541Z,25.20
2022-07-27T12:50:36.499Z,25.40
2022-07-27T12:53:05.346Z,25.40
2022-07-27T12:55:32.494Z,25.50
2022-07-27T12:57:59.435Z,25.50
2022-07-27T13:00:33.487Z,25.40
2022-07-27T13:03:01.941Z,25.20
2022-07-27T13:05:29.346Z,25.10
2022-07-27T13:07:57.061Z,25.20
2022-07-27T13:10:24.711Z,25.30
2022-07-27T13:12:52.303Z,25.40
2022-07-27T13:15:19.299Z,25.50
2022-07-27T13:17:47.340Z,25.60
2022-07-27T13:20:15.073Z,25.60
2022-07-27T13:22:42.449Z,26.40
2022-07-27T13:25:15.933Z,26.80
2022-07-27T13:27:44.672Z,26.80
2022-07-27T13:30:12.030Z,26.40
2022-07-27T13:32:39.141Z,26.10
2022-07-27T13:35:07.578Z,25.90
2022-07-27T13:37:34.723Z,25.70
2022-07-27T13:40:01.693Z,25.60
2022-07-27T13:42:28.530Z,25.60
2022-07-27T13:45:08.622Z,25.70
2022-07-27T13:47:36.690Z,25.60
2022-07-27T13:50:04.242Z,25.40
2022-07-27T13:52:31.033Z,25.40
2022-07-27T13:54:58.999Z,25.40
2022-07-27T13:57:25.933Z,25.40
2022-07-27T13:59:52.975Z,25.50
2022-07-27T14:02:22.842Z,25.40
2022-07-27T14:04:50.408Z,25.20
2022-07-27T14:07:18.156Z,25.00
2022-07-27T14:10:03.819Z,24.70
2022-07-27T14:12:30.655Z,24.60
2022-07-27T14:14:57.592Z,24.60
2022-07-27T14:17:24.635Z,24.60
2022-07-27T14:19:51.906Z,24.60
2022-07-27T14:22:18.733Z,24.60
2022-07-27T14:24:45.557Z,24.70
2022-07-27T14:27:12.335Z,24.80
2022-07-27T14:29:39.307Z,24.60
2022-07-27T14:32:06.385Z,24.50
2022-07-27T14:34:33.223Z,24.40
2022-07-27T14:37:00.063Z,24.30
2022-07-27T14:39:26.829Z,24.20
2022-07-27T14:41:53.752Z,24.00
2022-07-27T14:44:20.648Z,23.60
2022-07-27T14:46:47.712Z,23.30
2022-07-27T14:49:14.869Z,23.10
2022-07-27T14:51:41.820Z,23.20
2022-07-27T14:54:08.891Z,23.30
2022-07-27T14:56:36.691Z,23.30
2022-07-27T14:59:04.213Z,23.40
2022-07-27T15:01:34.667Z,23.40
2022-07-27T15:04:01.809Z,23.40
2022-07-27T15:06:28.895Z,23.50
2022-07-27T15:08:55.906Z,23.70
2022-07-27T15:11:22.703Z,23.80
2022-07-27T15:13:49.560Z,24.20
2022-07-27T15:16:16.806Z,24.50
2022-07-27T15:18:45.854Z,24.70
2022-07-27T15:21:14.154Z,24.60
2022-07-27T15:23:45.552Z,24.60
2022-07-27T15:26:13.188Z,24.60
2022-07-27T15:28:40.785Z,24.60
2022-07-27T15:31:07.747Z,24.60
2022-07-27T15:33:35.041Z,24.50
2022-07-27T15:36:02.033Z,24.40
2022-07-27T15:38:28.862Z,24.10
2022-07-27T15:40:55.699Z,24.20
2022-07-27T15:43:22.488Z,24.10
2022-07-27T15:45:51.054Z,24.00
2022-07-27T15:48:20.221Z,24.10
2022-07-27T15:50:50.695Z,24.10
2022-07-27T15:53:18.738Z,24.10
2022-07-27T15:55:54.990Z,23.90
2022-07-27T15:58:23.253Z,23.70
2022-07-27T16:00:52.308Z,23.80
2022-07-27T16:03:23.340Z,23.80
2022-07-27T16:05:52.527Z,23.90
2022-07-27T16:08:19.875Z,23.60
2022-07-27T16:10:48.334Z,23.40
2022-07-27T16:13:18.722Z,23.30
2022-07-27T16:16:04.844Z,23.20
2022-07-27T16:18:36.788Z,23.10
2022-07-27T16:21:05.979Z,23.10
2022-07-27T16:23:34.000Z,23.30
2022-07-27T16:26:05.508Z,23.30
2022-07-27T16:28:38.959Z,23.40
2022-07-27T16:31:08.088Z,23.40
2022-07-27T16:33:35.127Z,23.50
2022-07-27T16:36:03.343Z,23.50
2022-07-27T16:38:30.568Z,23.40
2022-07-27T16:40:57.397Z,23.20
2022-07-27T16:43:38.574Z,23.10
2022-07-27T16:46:10.468Z,23.10
2022-07-27T16:48:42.200Z,23.30
2022-07-27T16:51:13.536Z,23.20
2022-07-27T16:53:42.823Z,23.10
2022-07-27T16:56:10.166Z,23.00
2022-07-27T16:58:37.730Z,22.80
2022-07-27T17:01:07.777Z,22.70
2022-07-27T17:03:34.555Z,22.70
2022-07-27T17:06:05.899Z,22.50
2022-07-27T17:08:34.407Z,22.40
2022-07-27T17:11:02.413Z,22.40
2022-07-27T17:13:33.422Z,22.30
2022-07-27T17:16:02.250Z,22.30
2022-07-27T17:18:29.369Z,22.20
2022-07-27T17:20:56.288Z,22.00
2022-07-27T17:23:23.133Z,21.90
2022-07-27T17:25:49.961Z,21.80
2022-07-27T17:28:17.491Z,21.80
2022-07-27T17:30:44.402Z,21.80
2022-07-27T17:33:11.782Z,21.90
2022-07-27T17:35:38.817Z,21.80
2022-07-27T17:38:07.127Z,21.70
2022-07-27T17:40:35.794Z,21.60
2022-07-27T17:43:03.314Z,21.50
2022-07-27T17:45:31.295Z,21.50
2022-07-27T17:47:58.089Z,21.50
2022-07-27T17:50:25.089Z,21.40
2022-07-27T17:52:52.452Z,21.40
2022-07-27T17:55:19.415Z,21.50
2022-07-27T17:57:47.073Z,21.40
2022-07-27T18:00:14.414Z,21.40
2022-07-27T18:02:41.371Z,21.30
2022-07-27T18:05:08.555Z,21.40
2022-07-27T18:07:39.011Z,21.50
2022-07-27T18:10:08.262Z,21.50
2022-07-27T18:12:35.697Z,21.40
2022-07-27T18:15:21.306Z,21.40
2022-07-27T18:17:48.397Z,21.30
2022-07-27T18:20:15.390Z,21.20
2022-07-27T18:22:42.271Z,21.20
2022-07-27T18:25:09.615Z,21.10
2022-07-27T18:27:37.080Z,21.10
2022-07-27T18:30:04.711Z,21.10
2022-07-27T18:32:31.641Z,21.00
2022-07-27T18:34:58.498Z,21.10
2022-07-27T18:37:25.474Z,21.00
2022-07-27T18:39:52.533Z,21.00
2022-07-27T18:42:19.495Z,21.00
2022-07-27T18:44:46.484Z,20.90
2022-07-27T18:47:13.318Z,20.90
2022-07-27T18:49:40.710Z,20.80
2022-07-27T18:52:07.512Z,20.60
2022-07-27T18:54:34.442Z,20.40
2022-07-27T18:57:01.425Z,20.30
2022-07-27T18:59:28.290Z,20.10
2022-07-27T19:01:55.389Z,20.00
2022-07-27T19:04:24.590Z,19.90
2022-07-27T19:06:52.765Z,19.70
2022-07-27T19:09:19.539Z,19.60
2022-07-27T19:11:46.318Z,19.40
2022-07-27T19:14:13.657Z,19.30
2022-07-27T19:16:40.862Z,19.20
2022-07-27T19:19:14.206Z,19.20
2022-07-27T19:21:42.906Z,19.10
2022-07-27T19:24:11.185Z,19.00
2022-07-27T19:26:38.136Z,19.00
2022-07-27T19:29:05.045Z,18.90
2022-07-27T19:31:32.111Z,18.90
2022-07-27T19:33:59.042Z,18.90
2022-07-27T19:36:26.480Z,18.90
2022-07-27T19:38:53.576Z,18.90
2022-07-27T19:41:20.500Z,19.00
2022-07-27T19:43:47.387Z,19.00
2022-07-27T19:46:14.273Z,19.00
2022-07-27T19:48:41.172Z,19.00
2022-07-27T19:51:08.089Z,19.00
2022-07-27T19:53:35.737Z,19.00
2022-07-27T19:56:03.112Z,18.90
2022-07-27T19:58:31.333Z,18.90
2022-07-27T20:00:58.456Z,18.90
2022-07-27T20:03:25.701Z,18.90
2022-07-27T20:05:52.773Z,18.80
2022-07-27T20:08:19.795Z,18.70
2022-07-27T20:10:47.578Z,18.60
2022-07-27T20:13:14.733Z,18.60
2022-07-27T20:15:41.751Z,18.60
2022-07-27T20:18:08.594Z,18.60
2022-07-27T20:20:35.444Z,18.60
2022-07-27T20:23:02.319Z,18.60
2022-07-27T20:25:29.139Z,18.70
2022-07-27T20:27:55.895Z,18.70
2022-07-27T20:30:23.269Z,18.60
2022-07-27T20:32:50.555Z,18.60
2022-07-27T20:35:17.621Z,18.60
2022-07-27T20:37:45.312Z,18.60
2022-07-27T20:40:12.532Z,18.60
2022-07-27T20:42:41.035Z,18.60
2022-07-27T20:45:10.128Z,18.50
2022-07-27T20:47:38.206Z,18.50
2022-07-27T20:50:09.010Z,18.50
2022-07-27T20:52:38.867Z,18.50
2022-07-27T20:55:06.824Z,18.50
2022-07-27T20:57:35.895Z,18.40
2022-07-27T21:00:03.574Z,18.30
2022-07-27T21:02:30.561Z,18.30
2022-07-27T21:04:58.757Z,18.30
2022-07-27T21:07:26.096Z,18.30
2022-07-27T21:09:55.842Z,18.20
2022-07-27T21:12:23.259Z,18.10
2022-07-27T21:14:50.579Z,18.00
2022-07-27T21:17:17.593Z,17.90
2022-07-27T21:19:44.499Z,17.90
2022-07-27T21:22:11.797Z,17.80
2022-07-27T21:24:38.682Z,17.90
2022-07-27T21:27:05.496Z,17.90
2022-07-27T21:29:33.363Z,17.90
2022-07-27T21:32:00.176Z,17.90
2022-07-27T21:34:27.069Z,17.90
2022-07-27T21:36:54.038Z,17.70
2022-07-27T21:39:20.890Z,17.70
2022-07-27T21:41:47.782Z,17.60
2022-07-27T21:44:15.070Z,17.50
2022-07-27T21:46:42.275Z,17.40
2022-07-27T21:49:10.310Z,17.50
2022-07-27T21:51:37.998Z,17.50
2022-07-27T21:54:05.601Z,17.40
2022-07-27T21:56:41.846Z,17.40
2022-07-27T21:59:09.929Z,17.30
2022-07-27T22:01:36.999Z,17.40
2022-07-27T22:04:11.753Z,17.30
2022-07-27T22:06:39.813Z,17.20
2022-07-27T22:09:06.953Z,17.20
2022-07-27T22:11:33.850Z,17.20
2022-07-27T22:14:00.695Z,17.20
2022-07-27T22:16:28.275Z,17.20
2022-07-27T22:19:02.067Z,17.20
2022-07-27T22:21:28.921Z,17.30
2022-07-27T22:23:56.615Z,17.30
2022-07-27T22:26:23.406Z,17.20
2022-07-27T22:28:50.185Z,17.20
2022-07-27T22:31:22.605Z,17.20
2022-07-27T22:33:50.165Z,17.20
2022-07-27T22:36:16.992Z,17.20
2022-07-27T22:38:43.754Z,17.20
2022-07-27T22:41:10.825Z,17.10
2022-07-27T22:43:37.856Z,17.10
2022-07-27T22:46:05.307Z,17.10
2022-07-27T22:48:32.268Z,17.00
2022-07-27T22:50:59.200Z,17.00
2022-07-27T22:53:26.014Z,17.00
2022-07-27T22:55:53.760Z,17.00
2022-07-27T22:58:21.649Z,17.00
2022-07-27T23:00:49.069Z,16.90
2022-07-27T23:03:16.132Z,16.90
2022-07-27T23:05:43.225Z,16.80
2022-07-27T23:08:10.089Z,16.80
2022-07-27T23:10:46.071Z,16.80
2022-07-27T23:13:17.775Z,16.80
2022-07-27T23:15:45.544Z,16.70
2022-07-27T23:18:14.095Z,16.60
2022-07-27T23:20:45.116Z,16.60
2022-07-27T23:23:16.804Z,16.50
2022-07-27T23:25:47.228Z,16.50
2022-07-27T23:28:17.242Z,16.40
2022-07-27T23:30:44.787Z,16.40
2022-07-27T23:33:13.910Z,16.40
2022-07-27T23:35:40.701Z,16.40
2022-07-27T23:38:10.530Z,16.30
2022-07-27T23:40:37.454Z,16.30
2022-07-27T23:43:04.238Z,16.20
2022-07-27T23:45:34.725Z,16.20
2022-07-27T23:48:04.585Z,16.20
2022-07-27T23:50:32.154Z,16.20
2022-07-27T23:52:58.928Z,16.10
2022-07-27T23:55:28.319Z,16.10
2022-07-27T23:57:55.299Z,16.10
